sensor_id;sensor_type;location;lat;lon;timestamp;P1;durP1;ratioP1;P2;durP2;ratioP2
67696;SDS011;54486;51.442;6.778;2023-11-22T00:02:18;20.95;;;11.63;;
67696;SDS011;54486;51.442;6.778;2023-11-22T00:04:46;20.58;;;10.88;;
67696;SDS011;54486;51.442;6.778;2023-11-22T00:07:13;20.73;;;10.90;;
67696;SDS011;54486;51.442;6.778;2023-11-22T00:09:40;21.90;;;10.90;;
67696;SDS011;54486;51.442;6.778;2023-11-22T00:12:09;21.70;;;11.35;;
67696;SDS011;54486;51.442;6.778;2023-11-22T00:14:39;21.55;;;11.35;;
67696;SDS011;54486;51.442;6.778;2023-11-22T00:17:07;21.93;;;11.57;;
67696;SDS011;54486;51.442;6.778;2023-11-22T00:19:35;22.17;;;11.70;;
67696;SDS011;54486;51.442;6.778;2023-11-22T00:22:02;22.48;;;11.18;;
67696;SDS011;54486;51.442;6.778;2023-11-22T00:24:41;22.80;;;11.23;;
67696;SDS011;54486;51.442;6.778;2023-11-22T00:27:09;21.60;;;11.35;;
67696;SDS011;54486;51.442;6.778;2023-11-22T00:29:40;23.17;;;11.40;;
67696;SDS011;54486;51.442;6.778;2023-11-22T00:32:08;21.45;;;11.50;;
67696;SDS011;54486;51.442;6.778;2023-11-22T00:34:37;20.50;;;10.95;;
67696;SDS011;54486;51.442;6.778;2023-11-22T00:37:04;21.50;;;10.93;;
67696;SDS011;54486;51.442;6.778;2023-11-22T00:39:32;21.45;;;11.27;;
67696;SDS011;54486;51.442;6.778;2023-11-22T00:42:01;20.85;;;11.43;;
67696;SDS011;54486;51.442;6.778;2023-11-22T00:44:30;21.92;;;10.27;;
67696;SDS011;54486;51.442;6.778;2023-11-22T00:46:58;23.27;;;11.20;;
67696;SDS011;54486;51.442;6.778;2023-11-22T00:49:26;20.77;;;11.05;;
67696;SDS011;54486;51.442;6.778;2023-11-22T00:51:53;19.77;;;11.05;;
67696;SDS011;54486;51.442;6.778;2023-11-22T00:54:20;20.47;;;10.77;;
67696;SDS011;54486;51.442;6.778;2023-11-22T00:56:48;18.73;;;10.40;;
67696;SDS011;54486;51.442;6.778;2023-11-22T00:59:16;20.15;;;11.05;;
67696;SDS011;54486;51.442;6.778;2023-11-22T01:01:43;20.73;;;9.87;;
67696;SDS011;54486;51.442;6.778;2023-11-22T01:04:10;19.80;;;10.70;;
67696;SDS011;54486;51.442;6.778;2023-11-22T01:06:38;20.83;;;10.87;;
67696;SDS011;54486;51.442;6.778;2023-11-22T01:09:07;19.58;;;9.90;;
67696;SDS011;54486;51.442;6.778;2023-11-22T01:11:36;20.38;;;10.52;;
67696;SDS011;54486;51.442;6.778;2023-11-22T01:14:04;21.23;;;10.35;;
67696;SDS011;54486;51.442;6.778;2023-11-22T01:16:32;19.02;;;10.35;;
67696;SDS011;54486;51.442;6.778;2023-11-22T01:18:59;21.33;;;10.13;;
67696;SDS011;54486;51.442;6.778;2023-11-22T01:21:27;21.27;;;9.75;;
67696;SDS011;54486;51.442;6.778;2023-11-22T01:23:54;20.27;;;10.23;;
67696;SDS011;54486;51.442;6.778;2023-11-22T01:26:22;20.30;;;10.18;;
67696;SDS011;54486;51.442;6.778;2023-11-22T01:28:50;18.77;;;10.05;;
67696;SDS011;54486;51.442;6.778;2023-11-22T01:31:17;19.35;;;9.80;;
67696;SDS011;54486;51.442;6.778;2023-11-22T01:33:47;18.73;;;10.07;;
67696;SDS011;54486;51.442;6.778;2023-11-22T01:36:15;19.63;;;9.70;;
67696;SDS011;54486;51.442;6.778;2023-11-22T01:38:42;21.15;;;10.55;;
67696;SDS011;54486;51.442;6.778;2023-11-22T01:41:11;18.73;;;9.20;;
67696;SDS011;54486;51.442;6.778;2023-11-22T01:43:40;18.80;;;9.63;;
67696;SDS011;54486;51.442;6.778;2023-11-22T01:46:08;19.52;;;10.27;;
67696;SDS011;54486;51.442;6.778;2023-11-22T01:48:37;21.83;;;10.68;;
67696;SDS011;54486;51.442;6.778;2023-11-22T01:51:04;19.02;;;9.88;;
67696;SDS011;54486;51.442;6.778;2023-11-22T01:53:32;19.00;;;8.98;;
67696;SDS011;54486;51.442;6.778;2023-11-22T01:56:00;22.07;;;10.13;;
67696;SDS011;54486;51.442;6.778;2023-11-22T01:58:29;21.35;;;9.57;;
67696;SDS011;54486;51.442;6.778;2023-11-22T02:00:57;20.40;;;9.50;;
67696;SDS011;54486;51.442;6.778;2023-11-22T02:03:25;19.70;;;9.70;;
67696;SDS011;54486;51.442;6.778;2023-11-22T02:05:52;19.63;;;9.85;;
67696;SDS011;54486;51.442;6.778;2023-11-22T02:08:21;21.67;;;9.75;;
67696;SDS011;54486;51.442;6.778;2023-11-22T02:10:58;18.67;;;9.73;;
67696;SDS011;54486;51.442;6.778;2023-11-22T02:13:29;20.80;;;10.18;;
67696;SDS011;54486;51.442;6.778;2023-11-22T02:15:59;20.73;;;9.70;;
67696;SDS011;54486;51.442;6.778;2023-11-22T02:18:29;18.77;;;9.82;;
67696;SDS011;54486;51.442;6.778;2023-11-22T02:20:56;20.17;;;9.77;;
67696;SDS011;54486;51.442;6.778;2023-11-22T02:23:24;19.30;;;9.45;;
67696;SDS011;54486;51.442;6.778;2023-11-22T02:25:51;19.40;;;10.32;;
67696;SDS011;54486;51.442;6.778;2023-11-22T02:28:19;18.15;;;9.18;;
67696;SDS011;54486;51.442;6.778;2023-11-22T02:30:47;19.83;;;9.80;;
67696;SDS011;54486;51.442;6.778;2023-11-22T02:33:14;18.98;;;9.77;;
67696;SDS011;54486;51.442;6.778;2023-11-22T02:35:41;18.15;;;9.65;;
67696;SDS011;54486;51.442;6.778;2023-11-22T02:38:08;19.90;;;10.18;;
67696;SDS011;54486;51.442;6.778;2023-11-22T02:40:36;18.83;;;9.53;;
67696;SDS011;54486;51.442;6.778;2023-11-22T02:43:02;18.85;;;9.77;;
67696;SDS011;54486;51.442;6.778;2023-11-22T02:45:34;19.25;;;9.80;;
67696;SDS011;54486;51.442;6.778;2023-11-22T02:48:01;19.85;;;10.30;;
67696;SDS011;54486;51.442;6.778;2023-11-22T02:50:30;20.05;;;10.13;;
67696;SDS011;54486;51.442;6.778;2023-11-22T02:53:01;20.13;;;9.98;;
67696;SDS011;54486;51.442;6.778;2023-11-22T02:55:29;20.88;;;10.65;;
67696;SDS011;54486;51.442;6.778;2023-11-22T02:57:56;19.95;;;9.60;;
67696;SDS011;54486;51.442;6.778;2023-11-22T03:00:23;21.95;;;10.27;;
67696;SDS011;54486;51.442;6.778;2023-11-22T03:02:51;18.63;;;9.50;;
67696;SDS011;54486;51.442;6.778;2023-11-22T03:05:20;20.08;;;9.95;;
67696;SDS011;54486;51.442;6.778;2023-11-22T03:07:48;21.02;;;10.45;;
67696;SDS011;54486;51.442;6.778;2023-11-22T03:10:17;23.13;;;10.57;;
67696;SDS011;54486;51.442;6.778;2023-11-22T03:12:45;22.67;;;10.13;;
67696;SDS011;54486;51.442;6.778;2023-11-22T03:15:13;20.93;;;10.40;;
67696;SDS011;54486;51.442;6.778;2023-11-22T03:17:40;20.70;;;10.93;;
67696;SDS011;54486;51.442;6.778;2023-11-22T03:20:09;23.63;;;10.20;;
67696;SDS011;54486;51.442;6.778;2023-11-22T03:22:38;22.27;;;10.70;;
67696;SDS011;54486;51.442;6.778;2023-11-22T03:25:06;22.38;;;11.60;;
67696;SDS011;54486;51.442;6.778;2023-11-22T03:27:37;23.13;;;11.13;;
67696;SDS011;54486;51.442;6.778;2023-11-22T03:30:04;22.85;;;10.85;;
67696;SDS011;54486;51.442;6.778;2023-11-22T03:32:39;24.13;;;11.20;;
67696;SDS011;54486;51.442;6.778;2023-11-22T03:35:08;24.95;;;11.40;;
67696;SDS011;54486;51.442;6.778;2023-11-22T03:37:35;22.45;;;12.27;;
67696;SDS011;54486;51.442;6.778;2023-11-22T03:40:03;22.77;;;11.20;;
67696;SDS011;54486;51.442;6.778;2023-11-22T03:42:30;25.52;;;12.48;;
67696;SDS011;54486;51.442;6.778;2023-11-22T03:44:57;26.10;;;11.18;;
67696;SDS011;54486;51.442;6.778;2023-11-22T03:47:26;22.55;;;11.25;;
67696;SDS011;54486;51.442;6.778;2023-11-22T03:49:53;22.45;;;11.43;;
67696;SDS011;54486;51.442;6.778;2023-11-22T03:52:21;22.90;;;11.02;;
67696;SDS011;54486;51.442;6.778;2023-11-22T03:54:48;22.17;;;10.70;;
67696;SDS011;54486;51.442;6.778;2023-11-22T03:57:15;23.65;;;10.80;;
67696;SDS011;54486;51.442;6.778;2023-11-22T03:59:42;22.67;;;11.18;;
67696;SDS011;54486;51.442;6.778;2023-11-22T04:02:10;20.67;;;10.13;;
67696;SDS011;54486;51.442;6.778;2023-11-22T04:04:38;23.50;;;10.32;;
67696;SDS011;54486;51.442;6.778;2023-11-22T04:07:07;20.95;;;9.98;;
67696;SDS011;54486;51.442;6.778;2023-11-22T04:09:34;22.87;;;11.20;;
67696;SDS011;54486;51.442;6.778;2023-11-22T04:12:02;21.03;;;10.47;;
67696;SDS011;54486;51.442;6.778;2023-11-22T04:14:30;22.33;;;10.93;;
67696;SDS011;54486;51.442;6.778;2023-11-22T04:16:58;24.23;;;10.82;;
67696;SDS011;54486;51.442;6.778;2023-11-22T04:19:25;24.55;;;10.75;;
67696;SDS011;54486;51.442;6.778;2023-11-22T04:21:53;22.55;;;11.80;;
67696;SDS011;54486;51.442;6.778;2023-11-22T04:24:21;21.92;;;11.00;;
67696;SDS011;54486;51.442;6.778;2023-11-22T04:26:48;21.05;;;10.70;;
67696;SDS011;54486;51.442;6.778;2023-11-22T04:29:15;22.20;;;10.80;;
67696;SDS011;54486;51.442;6.778;2023-11-22T04:31:43;22.05;;;10.93;;
67696;SDS011;54486;51.442;6.778;2023-11-22T04:34:11;20.50;;;9.88;;
67696;SDS011;54486;51.442;6.778;2023-11-22T04:36:37;20.98;;;10.50;;
67696;SDS011;54486;51.442;6.778;2023-11-22T04:39:05;22.45;;;11.48;;
67696;SDS011;54486;51.442;6.778;2023-11-22T04:41:34;22.92;;;11.45;;
67696;SDS011;54486;51.442;6.778;2023-11-22T04:44:02;22.05;;;11.23;;
67696;SDS011;54486;51.442;6.778;2023-11-22T04:46:29;21.58;;;10.82;;
67696;SDS011;54486;51.442;6.778;2023-11-22T04:48:58;25.30;;;12.23;;
67696;SDS011;54486;51.442;6.778;2023-11-22T04:51:25;22.63;;;10.75;;
67696;SDS011;54486;51.442;6.778;2023-11-22T04:53:52;22.52;;;11.50;;
67696;SDS011;54486;51.442;6.778;2023-11-22T04:56:19;22.53;;;11.17;;
67696;SDS011;54486;51.442;6.778;2023-11-22T04:58:46;22.88;;;11.68;;
67696;SDS011;54486;51.442;6.778;2023-11-22T05:01:13;25.15;;;12.23;;
67696;SDS011;54486;51.442;6.778;2023-11-22T05:03:44;24.35;;;11.75;;
67696;SDS011;54486;51.442;6.778;2023-11-22T05:06:11;23.88;;;11.60;;
67696;SDS011;54486;51.442;6.778;2023-11-22T05:08:39;22.58;;;10.88;;
67696;SDS011;54486;51.442;6.778;2023-11-22T05:11:06;22.17;;;11.07;;
67696;SDS011;54486;51.442;6.778;2023-11-22T05:13:34;23.65;;;10.40;;
67696;SDS011;54486;51.442;6.778;2023-11-22T05:16:01;22.95;;;11.00;;
67696;SDS011;54486;51.442;6.778;2023-11-22T05:18:28;20.40;;;10.07;;
67696;SDS011;54486;51.442;6.778;2023-11-22T05:20:55;20.93;;;10.20;;
67696;SDS011;54486;51.442;6.778;2023-11-22T05:23:22;20.88;;;10.43;;
67696;SDS011;54486;51.442;6.778;2023-11-22T05:25:49;21.65;;;9.90;;
67696;SDS011;54486;51.442;6.778;2023-11-22T05:28:17;23.00;;;10.65;;
67696;SDS011;54486;51.442;6.778;2023-11-22T05:30:44;21.27;;;9.85;;
67696;SDS011;54486;51.442;6.778;2023-11-22T05:33:11;19.50;;;9.50;;
67696;SDS011;54486;51.442;6.778;2023-11-22T05:35:38;20.37;;;9.67;;
67696;SDS011;54486;51.442;6.778;2023-11-22T05:38:07;20.53;;;9.90;;
67696;SDS011;54486;51.442;6.778;2023-11-22T05:40:36;21.02;;;10.27;;
67696;SDS011;54486;51.442;6.778;2023-11-22T05:43:03;19.45;;;8.80;;
67696;SDS011;54486;51.442;6.778;2023-11-22T05:45:31;21.02;;;9.70;;
67696;SDS011;54486;51.442;6.778;2023-11-22T05:47:58;19.63;;;9.82;;
67696;SDS011;54486;51.442;6.778;2023-11-22T05:50:25;20.48;;;9.43;;
67696;SDS011;54486;51.442;6.778;2023-11-22T05:52:52;19.10;;;9.70;;
67696;SDS011;54486;51.442;6.778;2023-11-22T05:55:20;18.60;;;9.02;;
67696;SDS011;54486;51.442;6.778;2023-11-22T05:57:47;17.92;;;8.70;;
67696;SDS011;54486;51.442;6.778;2023-11-22T06:00:14;20.80;;;9.20;;
67696;SDS011;54486;51.442;6.778;2023-11-22T06:02:42;19.30;;;9.27;;
67696;SDS011;54486;51.442;6.778;2023-11-22T06:05:10;19.17;;;9.70;;
67696;SDS011;54486;51.442;6.778;2023-11-22T06:07:38;20.20;;;9.32;;
67696;SDS011;54486;51.442;6.778;2023-11-22T06:10:05;20.85;;;9.95;;
67696;SDS011;54486;51.442;6.778;2023-11-22T06:12:32;19.00;;;8.48;;
67696;SDS011;54486;51.442;6.778;2023-11-22T06:15:00;18.30;;;8.77;;
67696;SDS011;54486;51.442;6.778;2023-11-22T06:17:26;18.80;;;8.68;;
67696;SDS011;54486;51.442;6.778;2023-11-22T06:19:56;20.05;;;8.77;;
67696;SDS011;54486;51.442;6.778;2023-11-22T06:22:23;21.60;;;9.85;;
67696;SDS011;54486;51.442;6.778;2023-11-22T06:24:50;19.23;;;9.32;;
67696;SDS011;54486;51.442;6.778;2023-11-22T06:27:17;19.67;;;9.80;;
67696;SDS011;54486;51.442;6.778;2023-11-22T06:29:45;18.85;;;8.93;;
67696;SDS011;54486;51.442;6.778;2023-11-22T06:32:13;17.77;;;9.35;;
67696;SDS011;54486;51.442;6.778;2023-11-22T06:34:41;20.55;;;9.45;;
67696;SDS011;54486;51.442;6.778;2023-11-22T06:37:08;18.33;;;8.88;;
67696;SDS011;54486;51.442;6.778;2023-11-22T06:39:35;19.60;;;9.33;;
67696;SDS011;54486;51.442;6.778;2023-11-22T06:42:04;18.02;;;8.48;;
67696;SDS011;54486;51.442;6.778;2023-11-22T06:44:31;19.73;;;9.88;;
67696;SDS011;54486;51.442;6.778;2023-11-22T06:46:58;17.00;;;8.88;;
67696;SDS011;54486;51.442;6.778;2023-11-22T06:49:25;18.20;;;8.90;;
67696;SDS011;54486;51.442;6.778;2023-11-22T06:51:52;18.83;;;8.67;;
67696;SDS011;54486;51.442;6.778;2023-11-22T06:54:20;18.57;;;9.10;;
67696;SDS011;54486;51.442;6.778;2023-11-22T06:56:47;20.08;;;9.35;;
67696;SDS011;54486;51.442;6.778;2023-11-22T06:59:15;20.02;;;9.52;;
67696;SDS011;54486;51.442;6.778;2023-11-22T07:01:42;19.20;;;9.05;;
67696;SDS011;54486;51.442;6.778;2023-11-22T07:04:10;20.17;;;9.43;;
67696;SDS011;54486;51.442;6.778;2023-11-22T07:06:37;21.20;;;9.93;;
67696;SDS011;54486;51.442;6.778;2023-11-22T07:09:04;19.30;;;9.07;;
67696;SDS011;54486;51.442;6.778;2023-11-22T07:11:33;19.45;;;9.77;;
67696;SDS011;54486;51.442;6.778;2023-11-22T07:14:01;19.48;;;9.60;;
67696;SDS011;54486;51.442;6.778;2023-11-22T07:16:34;18.42;;;9.18;;
67696;SDS011;54486;51.442;6.778;2023-11-22T07:19:01;21.23;;;9.17;;
67696;SDS011;54486;51.442;6.778;2023-11-22T07:21:33;19.73;;;9.33;;
67696;SDS011;54486;51.442;6.778;2023-11-22T07:24:04;18.23;;;9.00;;
67696;SDS011;54486;51.442;6.778;2023-11-22T07:26:33;19.30;;;9.05;;
67696;SDS011;54486;51.442;6.778;2023-11-22T07:29:00;19.65;;;9.25;;
67696;SDS011;54486;51.442;6.778;2023-11-22T07:31:28;19.97;;;9.33;;
67696;SDS011;54486;51.442;6.778;2023-11-22T07:33:56;19.52;;;9.10;;
67696;SDS011;54486;51.442;6.778;2023-11-22T07:36:23;18.60;;;8.65;;
67696;SDS011;54486;51.442;6.778;2023-11-22T07:38:52;18.58;;;9.20;;
67696;SDS011;54486;51.442;6.778;2023-11-22T07:41:20;18.92;;;8.90;;
67696;SDS011;54486;51.442;6.778;2023-11-22T07:43:48;18.25;;;8.73;;
67696;SDS011;54486;51.442;6.778;2023-11-22T07:46:17;18.35;;;9.38;;
67696;SDS011;54486;51.442;6.778;2023-11-22T07:48:46;20.93;;;10.37;;
67696;SDS011;54486;51.442;6.778;2023-11-22T07:51:14;19.63;;;9.82;;
67696;SDS011;54486;51.442;6.778;2023-11-22T07:53:45;24.57;;;10.33;;
67696;SDS011;54486;51.442;6.778;2023-11-22T07:56:12;19.50;;;9.20;;
67696;SDS011;54486;51.442;6.778;2023-11-22T07:58:42;20.30;;;9.75;;
67696;SDS011;54486;51.442;6.778;2023-11-22T08:01:09;19.92;;;9.35;;
67696;SDS011;54486;51.442;6.778;2023-11-22T08:03:41;19.00;;;9.27;;
67696;SDS011;54486;51.442;6.778;2023-11-22T08:06:13;19.35;;;9.23;;
67696;SDS011;54486;51.442;6.778;2023-11-22T08:08:43;19.60;;;9.20;;
67696;SDS011;54486;51.442;6.778;2023-11-22T08:11:12;20.17;;;9.75;;
67696;SDS011;54486;51.442;6.778;2023-11-22T08:13:42;19.73;;;9.40;;
67696;SDS011;54486;51.442;6.778;2023-11-22T08:16:14;20.85;;;9.45;;
67696;SDS011;54486;51.442;6.778;2023-11-22T08:18:41;21.20;;;9.75;;
67696;SDS011;54486;51.442;6.778;2023-11-22T08:21:11;20.10;;;9.52;;
67696;SDS011;54486;51.442;6.778;2023-11-22T08:23:38;21.27;;;9.70;;
67696;SDS011;54486;51.442;6.778;2023-11-22T08:26:05;20.10;;;9.75;;
67696;SDS011;54486;51.442;6.778;2023-11-22T08:28:33;19.17;;;9.20;;
67696;SDS011;54486;51.442;6.778;2023-11-22T08:31:01;22.03;;;10.13;;
67696;SDS011;54486;51.442;6.778;2023-11-22T08:33:31;20.85;;;9.13;;
67696;SDS011;54486;51.442;6.778;2023-11-22T08:35:58;19.73;;;9.70;;
67696;SDS011;54486;51.442;6.778;2023-11-22T08:38:27;19.02;;;9.52;;
67696;SDS011;54486;51.442;6.778;2023-11-22T08:40:54;18.58;;;8.30;;
67696;SDS011;54486;51.442;6.778;2023-11-22T08:43:22;19.42;;;9.38;;
67696;SDS011;54486;51.442;6.778;2023-11-22T08:45:52;18.10;;;8.10;;
67696;SDS011;54486;51.442;6.778;2023-11-22T08:48:34;21.40;;;8.98;;
67696;SDS011;54486;51.442;6.778;2023-11-22T08:51:05;18.17;;;8.80;;
67696;SDS011;54486;51.442;6.778;2023-11-22T08:53:34;18.23;;;9.00;;
67696;SDS011;54486;51.442;6.778;2023-11-22T08:56:02;20.13;;;9.25;;
67696;SDS011;54486;51.442;6.778;2023-11-22T08:58:32;20.42;;;8.25;;
67696;SDS011;54486;51.442;6.778;2023-11-22T09:01:00;17.92;;;9.13;;
67696;SDS011;54486;51.442;6.778;2023-11-22T09:03:27;17.75;;;8.82;;
67696;SDS011;54486;51.442;6.778;2023-11-22T09:05:56;17.43;;;8.50;;
67696;SDS011;54486;51.442;6.778;2023-11-22T09:08:22;20.02;;;8.93;;
67696;SDS011;54486;51.442;6.778;2023-11-22T09:10:54;18.25;;;8.38;;
67696;SDS011;54486;51.442;6.778;2023-11-22T09:13:21;19.33;;;8.57;;
67696;SDS011;54486;51.442;6.778;2023-11-22T09:15:49;18.42;;;8.68;;
67696;SDS011;54486;51.442;6.778;2023-11-22T09:18:17;18.42;;;8.80;;
67696;SDS011;54486;51.442;6.778;2023-11-22T09:20:44;18.58;;;8.95;;
67696;SDS011;54486;51.442;6.778;2023-11-22T09:23:12;16.90;;;8.50;;
67696;SDS011;54486;51.442;6.778;2023-11-22T09:25:41;16.77;;;7.68;;
67696;SDS011;54486;51.442;6.778;2023-11-22T09:28:08;17.25;;;8.23;;
67696;SDS011;54486;51.442;6.778;2023-11-22T09:30:36;19.10;;;9.10;;
67696;SDS011;54486;51.442;6.778;2023-11-22T09:33:09;17.95;;;8.30;;
67696;SDS011;54486;51.442;6.778;2023-11-22T09:35:39;16.08;;;8.23;;
67696;SDS011;54486;51.442;6.778;2023-11-22T09:38:07;17.05;;;8.57;;
67696;SDS011;54486;51.442;6.778;2023-11-22T09:40:47;17.05;;;8.18;;
67696;SDS011;54486;51.442;6.778;2023-11-22T09:43:17;15.43;;;7.97;;
67696;SDS011;54486;51.442;6.778;2023-11-22T09:45:49;16.83;;;7.82;;
67696;SDS011;54486;51.442;6.778;2023-11-22T09:48:23;17.48;;;7.25;;
67696;SDS011;54486;51.442;6.778;2023-11-22T09:56:20;14.17;;;7.30;;
67696;SDS011;54486;51.442;6.778;2023-11-22T09:58:47;15.93;;;7.25;;
67696;SDS011;54486;51.442;6.778;2023-11-22T10:01:21;15.73;;;6.93;;
67696;SDS011;54486;51.442;6.778;2023-11-22T10:03:49;15.63;;;7.90;;
67696;SDS011;54486;51.442;6.778;2023-11-22T10:06:18;18.30;;;7.88;;
67696;SDS011;54486;51.442;6.778;2023-11-22T10:08:45;17.27;;;7.70;;
67696;SDS011;54486;51.442;6.778;2023-11-22T10:11:17;14.43;;;7.27;;
67696;SDS011;54486;51.442;6.778;2023-11-22T10:13:48;15.98;;;7.03;;
67696;SDS011;54486;51.442;6.778;2023-11-22T10:16:17;16.05;;;8.32;;
67696;SDS011;54486;51.442;6.778;2023-11-22T10:18:46;15.32;;;7.95;;
67696;SDS011;54486;51.442;6.778;2023-11-22T10:21:18;15.77;;;7.60;;
67696;SDS011;54486;51.442;6.778;2023-11-22T10:23:48;15.15;;;7.10;;
67696;SDS011;54486;51.442;6.778;2023-11-22T10:26:15;15.57;;;6.93;;
67696;SDS011;54486;51.442;6.778;2023-11-22T10:28:43;15.48;;;7.70;;
67696;SDS011;54486;51.442;6.778;2023-11-22T10:31:11;15.90;;;7.68;;
67696;SDS011;54486;51.442;6.778;2023-11-22T10:33:39;14.13;;;7.18;;
67696;SDS011;54486;51.442;6.778;2023-11-22T10:36:09;16.67;;;7.70;;
67696;SDS011;54486;51.442;6.778;2023-11-22T10:38:36;12.80;;;6.10;;
67696;SDS011;54486;51.442;6.778;2023-11-22T10:41:04;15.53;;;6.63;;
67696;SDS011;54486;51.442;6.778;2023-11-22T10:43:32;14.93;;;6.40;;
67696;SDS011;54486;51.442;6.778;2023-11-22T10:46:04;14.00;;;6.70;;
67696;SDS011;54486;51.442;6.778;2023-11-22T10:48:33;14.05;;;6.53;;
67696;SDS011;54486;51.442;6.778;2023-11-22T10:51:02;13.30;;;6.43;;
67696;SDS011;54486;51.442;6.778;2023-11-22T10:56:11;12.65;;;5.97;;
67696;SDS011;54486;51.442;6.778;2023-11-22T10:58:46;12.93;;;5.90;;
67696;SDS011;54486;51.442;6.778;2023-11-22T11:01:18;11.95;;;5.80;;
67696;SDS011;54486;51.442;6.778;2023-11-22T11:03:55;12.10;;;5.97;;
67696;SDS011;54486;51.442;6.778;2023-11-22T11:06:31;14.02;;;5.97;;
67696;SDS011;54486;51.442;6.778;2023-11-22T11:09:01;12.05;;;5.35;;
67696;SDS011;54486;51.442;6.778;2023-11-22T11:11:33;14.43;;;5.65;;
67696;SDS011;54486;51.442;6.778;2023-11-22T11:14:02;13.07;;;5.47;;
67696;SDS011;54486;51.442;6.778;2023-11-22T11:16:32;11.70;;;5.10;;
67696;SDS011;54486;51.442;6.778;2023-11-22T11:19:04;11.90;;;5.60;;
67696;SDS011;54486;51.442;6.778;2023-11-22T11:21:34;13.18;;;6.18;;
67696;SDS011;54486;51.442;6.778;2023-11-22T11:24:01;11.82;;;4.88;;
67696;SDS011;54486;51.442;6.778;2023-11-22T11:26:34;10.75;;;4.70;;
67696;SDS011;54486;51.442;6.778;2023-11-22T11:29:01;11.27;;;4.80;;
67696;SDS011;54486;51.442;6.778;2023-11-22T11:31:34;12.40;;;5.05;;
67696;SDS011;54486;51.442;6.778;2023-11-22T11:34:06;13.05;;;5.40;;
67696;SDS011;54486;51.442;6.778;2023-11-22T11:36:36;11.98;;;5.25;;
67696;SDS011;54486;51.442;6.778;2023-11-22T11:39:05;10.93;;;5.20;;
67696;SDS011;54486;51.442;6.778;2023-11-22T11:41:42;11.57;;;4.93;;
67696;SDS011;54486;51.442;6.778;2023-11-22T11:44:10;11.68;;;5.35;;
67696;SDS011;54486;51.442;6.778;2023-11-22T11:46:38;12.98;;;5.75;;
67696;SDS011;54486;51.442;6.778;2023-11-22T11:49:07;11.70;;;5.57;;
67696;SDS011;54486;51.442;6.778;2023-11-22T11:51:35;12.27;;;5.47;;
67696;SDS011;54486;51.442;6.778;2023-11-22T11:54:02;12.48;;;5.28;;
67696;SDS011;54486;51.442;6.778;2023-11-22T11:56:30;12.65;;;5.90;;
67696;SDS011;54486;51.442;6.778;2023-11-22T11:58:59;12.13;;;4.85;;
67696;SDS011;54486;51.442;6.778;2023-11-22T12:01:29;11.38;;;4.80;;
67696;SDS011;54486;51.442;6.778;2023-11-22T12:04:02;11.60;;;5.10;;
67696;SDS011;54486;51.442;6.778;2023-11-22T12:06:30;11.48;;;5.20;;
67696;SDS011;54486;51.442;6.778;2023-11-22T12:09:00;11.45;;;5.40;;
67696;SDS011;54486;51.442;6.778;2023-11-22T12:11:27;12.55;;;5.20;;
67696;SDS011;54486;51.442;6.778;2023-11-22T12:13:57;12.35;;;5.22;;
67696;SDS011;54486;51.442;6.778;2023-11-22T12:16:25;17.08;;;8.20;;
67696;SDS011;54486;51.442;6.778;2023-11-22T12:18:54;10.75;;;4.82;;
67696;SDS011;54486;51.442;6.778;2023-11-22T12:21:22;10.50;;;4.45;;
67696;SDS011;54486;51.442;6.778;2023-11-22T12:23:50;9.90;;;4.60;;
67696;SDS011;54486;51.442;6.778;2023-11-22T12:26:19;12.07;;;4.60;;
67696;SDS011;54486;51.442;6.778;2023-11-22T12:28:48;10.40;;;4.00;;
67696;SDS011;54486;51.442;6.778;2023-11-22T12:31:30;8.65;;;3.60;;
67696;SDS011;54486;51.442;6.778;2023-11-22T12:34:03;8.10;;;3.00;;
67696;SDS011;54486;51.442;6.778;2023-11-22T12:36:33;8.23;;;3.30;;
67696;SDS011;54486;51.442;6.778;2023-11-22T12:39:06;8.02;;;3.25;;
67696;SDS011;54486;51.442;6.778;2023-11-22T12:41:35;8.93;;;3.70;;
67696;SDS011;54486;51.442;6.778;2023-11-22T12:44:05;9.77;;;4.35;;
67696;SDS011;54486;51.442;6.778;2023-11-22T12:49:23;9.38;;;3.55;;
67696;SDS011;54486;51.442;6.778;2023-11-22T12:51:51;8.68;;;3.40;;
67696;SDS011;54486;51.442;6.778;2023-11-22T12:54:19;9.10;;;3.27;;
67696;SDS011;54486;51.442;6.778;2023-11-22T12:56:49;7.70;;;2.60;;
67696;SDS011;54486;51.442;6.778;2023-11-22T12:59:17;7.60;;;2.40;;
67696;SDS011;54486;51.442;6.778;2023-11-22T13:01:44;6.67;;;2.33;;
67696;SDS011;54486;51.442;6.778;2023-11-22T13:04:12;6.90;;;2.42;;
67696;SDS011;54486;51.442;6.778;2023-11-22T13:06:41;6.97;;;2.40;;
67696;SDS011;54486;51.442;6.778;2023-11-22T13:09:08;6.22;;;2.05;;
67696;SDS011;54486;51.442;6.778;2023-11-22T13:11:42;8.35;;;2.55;;
67696;SDS011;54486;51.442;6.778;2023-11-22T13:14:13;7.70;;;2.70;;
67696;SDS011;54486;51.442;6.778;2023-11-22T13:16:43;7.00;;;2.20;;
67696;SDS011;54486;51.442;6.778;2023-11-22T13:19:12;7.47;;;2.00;;
67696;SDS011;54486;51.442;6.778;2023-11-22T13:21:39;7.35;;;2.40;;
67696;SDS011;54486;51.442;6.778;2023-11-22T13:24:08;7.57;;;1.95;;
67696;SDS011;54486;51.442;6.778;2023-11-22T13:26:36;7.30;;;2.22;;
67696;SDS011;54486;51.442;6.778;2023-11-22T13:29:03;7.63;;;2.45;;
67696;SDS011;54486;51.442;6.778;2023-11-22T13:31:31;9.38;;;3.17;;
67696;SDS011;54486;51.442;6.778;2023-11-22T13:33:58;8.43;;;3.28;;
67696;SDS011;54486;51.442;6.778;2023-11-22T13:36:26;8.48;;;3.00;;
67696;SDS011;54486;51.442;6.778;2023-11-22T13:38:54;7.65;;;2.90;;
67696;SDS011;54486;51.442;6.778;2023-11-22T13:41:23;8.70;;;3.03;;
67696;SDS011;54486;51.442;6.778;2023-11-22T13:43:52;9.73;;;3.38;;
67696;SDS011;54486;51.442;6.778;2023-11-22T13:46:19;9.18;;;3.83;;
67696;SDS011;54486;51.442;6.778;2023-11-22T13:48:47;8.77;;;3.47;;
67696;SDS011;54486;51.442;6.778;2023-11-22T13:51:14;11.20;;;3.88;;
67696;SDS011;54486;51.442;6.778;2023-11-22T13:53:41;11.63;;;3.72;;
67696;SDS011;54486;51.442;6.778;2023-11-22T13:56:11;9.52;;;3.50;;
67696;SDS011;54486;51.442;6.778;2023-11-22T13:58:41;9.75;;;3.40;;
67696;SDS011;54486;51.442;6.778;2023-11-22T14:01:08;8.30;;;3.70;;
67696;SDS011;54486;51.442;6.778;2023-11-22T14:03:40;8.82;;;3.28;;
67696;SDS011;54486;51.442;6.778;2023-11-22T14:06:08;10.18;;;3.00;;
67696;SDS011;54486;51.442;6.778;2023-11-22T14:08:36;8.23;;;3.10;;
67696;SDS011;54486;51.442;6.778;2023-11-22T14:11:03;8.30;;;2.95;;
67696;SDS011;54486;51.442;6.778;2023-11-22T14:13:31;8.93;;;3.43;;
67696;SDS011;54486;51.442;6.778;2023-11-22T14:15:58;8.48;;;2.63;;
67696;SDS011;54486;51.442;6.778;2023-11-22T14:18:28;8.75;;;3.65;;
67696;SDS011;54486;51.442;6.778;2023-11-22T14:20:55;9.68;;;3.83;;
67696;SDS011;54486;51.442;6.778;2023-11-22T14:23:23;10.38;;;3.97;;
67696;SDS011;54486;51.442;6.778;2023-11-22T14:25:50;8.98;;;4.03;;
67696;SDS011;54486;51.442;6.778;2023-11-22T14:28:18;12.00;;;4.70;;
67696;SDS011;54486;51.442;6.778;2023-11-22T14:30:45;13.10;;;5.70;;
67696;SDS011;54486;51.442;6.778;2023-11-22T14:33:12;12.40;;;5.13;;
67696;SDS011;54486;51.442;6.778;2023-11-22T14:35:39;11.20;;;4.70;;
67696;SDS011;54486;51.442;6.778;2023-11-22T14:38:07;11.50;;;4.90;;
67696;SDS011;54486;51.442;6.778;2023-11-22T14:40:35;10.18;;;5.00;;
67696;SDS011;54486;51.442;6.778;2023-11-22T14:43:05;10.70;;;4.93;;
67696;SDS011;54486;51.442;6.778;2023-11-22T14:45:32;10.35;;;4.30;;
67696;SDS011;54486;51.442;6.778;2023-11-22T14:48:00;9.40;;;3.95;;
67696;SDS011;54486;51.442;6.778;2023-11-22T14:50:28;9.73;;;4.13;;
67696;SDS011;54486;51.442;6.778;2023-11-22T14:52:55;9.88;;;3.85;;